Time;durP1;ratioP1;P1;durP2;ratioP2;P2;SDS_P1;SDS_P2;PMS_P1;PMS_P2;Temp;Humidity;BMP_temperature;BMP_pressure;BME280_temperature;BME280_humidity;BME280_pressure;Samples;Min_cycle;Max_cycle;Signal;HPM_P1;HPM_P2
2023/01/31 00:01:52;;;;;;;6.83;4.30;;;3.10;99.90;;;6.27;54.32;98474.59;5024736;28;20049;-42
2023/01/31 00:04:19;;;;;;;6.50;4.07;;;3.00;99.90;;;6.27;54.53;98478.06;5031511;28;20052;-42
2023/01/31 00:06:50;;;;;;;12.73;4.83;;;3.00;99.90;;;6.23;54.27;98481.06;5032680;28;20497;-42
2023/01/31 00:09:18;;;;;;;6.93;4.80;;;3.00;99.90;;;6.24;54.64;98475.66;5032562;28;20050;-46
2023/01/31 00:11:46;;;;;;;6.60;3.87;;;3.00;99.90;;;6.29;54.51;98475.31;5030925;28;20394;-46
2023/01/31 00:14:18;;;;;;;8.00;4.30;;;3.00;99.90;;;6.25;54.36;98468.56;5032619;28;20102;-48
2023/01/31 00:16:47;;;;;;;7.00;4.13;;;3.00;99.90;;;6.29;54.25;98473.50;5014976;28;20445;-47
2023/01/31 00:19:14;;;;;;;11.73;5.77;;;3.00;99.90;;;6.23;54.13;98460.75;5032450;28;20041;-46
2023/01/31 00:21:43;;;;;;;9.90;4.27;;;2.90;99.90;;;6.25;54.15;98455.34;5030214;28;20045;-47
2023/01/31 00:24:12;;;;;;;9.27;4.17;;;3.00;99.90;;;6.23;53.98;98481.06;5032407;28;20412;-47
2023/01/31 00:26:40;;;;;;;7.50;4.57;;;2.90;99.90;;;6.15;54.16;98455.19;5032301;28;20041;-46
2023/01/31 00:29:09;;;;;;;10.13;4.10;;;3.00;99.90;;;6.24;54.24;98457.16;5031997;28;20485;-47
2023/01/31 00:31:37;;;;;;;8.60;3.70;;;3.00;99.90;;;6.24;53.60;98454.53;5031472;28;20390;-47
2023/01/31 00:34:06;;;;;;;7.60;3.97;;;3.00;99.90;;;6.25;53.72;98444.78;5032206;28;20056;-45
2023/01/31 00:36:34;;;;;;;9.73;4.17;;;3.00;99.90;;;6.26;53.92;98454.38;5031932;28;20049;-48
2023/01/31 00:39:06;;;;;;;5.73;3.90;;;3.00;99.90;;;6.27;53.71;98435.75;5031776;28;20049;-45
2023/01/31 00:41:36;;;;;;;5.57;3.63;;;3.00;99.90;;;6.22;53.96;98440.56;5030216;28;20057;-46
2023/01/31 00:44:06;;;;;;;6.03;3.20;;;3.00;99.90;;;6.23;53.03;98444.03;5030805;28;20057;-50
2023/01/31 00:46:34;;;;;;;14.13;4.23;;;3.00;99.90;;;6.22;53.70;98443.22;5030594;28;20509;-46
2023/01/31 00:49:03;;;;;;;7.90;3.73;;;3.00;99.90;;;6.18;53.52;98433.78;5030649;28;20060;-48
2023/01/31 00:51:31;;;;;;;4.27;3.00;;;3.00;99.90;;;6.17;53.24;98436.56;5031354;28;20497;-46
2023/01/31 00:53:58;;;;;;;7.63;3.70;;;3.00;99.90;;;6.15;53.47;98439.31;5029820;28;20061;-48
2023/01/31 00:56:26;;;;;;;6.23;3.17;;;2.90;99.90;;;6.08;52.93;98443.38;5030749;28;20072;-48
2023/01/31 00:58:54;;;;;;;5.93;3.60;;;2.90;99.90;;;6.12;53.21;98436.91;5022754;28;20053;-51
2023/01/31 01:01:26;;;;;;;8.73;3.70;;;2.90;99.90;;;6.11;52.62;98440.50;5013917;28;20049;-46
2023/01/31 01:03:56;;;;;;;7.23;3.47;;;2.80;99.90;;;5.98;53.22;98442.38;5030105;28;20041;-47
2023/01/31 01:06:24;;;;;;;6.77;3.30;;;2.90;99.90;;;5.90;53.11;98441.09;5030351;28;20049;-46
2023/01/31 01:08:53;;;;;;;8.93;3.10;;;2.90;99.90;;;6.06;52.99;98438.19;5029832;28;20444;-48
2023/01/31 01:11:30;;;;;;;4.97;3.03;;;2.90;99.90;;;5.83;53.85;98444.28;5030168;28;20053;-46
2023/01/31 01:14:00;;;;;;;8.13;3.50;;;2.80;99.90;;;5.81;53.58;98448.84;5023637;28;20071;-46
2023/01/31 01:16:37;;;;;;;8.60;3.60;;;2.70;99.90;;;5.96;52.96;98455.69;5030028;28;20088;-47
2023/01/31 01:19:12;;;;;;;8.03;3.37;;;2.80;99.90;;;6.03;53.19;98461.38;5024814;28;20048;-47
2023/01/31 01:21:40;;;;;;;6.47;3.63;;;2.70;99.90;;;5.97;53.95;98452.13;5029842;28;20041;-46
2023/01/31 01:24:14;;;;;;;9.57;4.13;;;2.70;99.90;;;5.92;53.91;98452.41;5031290;28;20044;-46
2023/01/31 01:26:42;;;;;;;9.20;4.27;;;2.70;99.90;;;6.01;53.27;98458.00;5029887;28;20052;-46
2023/01/31 01:29:11;;;;;;;7.47;3.40;;;2.70;99.90;;;6.01;53.78;98455.34;5031117;28;20041;-47
2023/01/31 01:31:39;;;;;;;9.33;3.77;;;2.70;99.90;;;6.04;53.18;98445.41;5012737;28;20068;-48
2023/01/31 01:34:14;;;;;;;8.13;3.43;;;2.70;99.90;;;5.96;53.47;98447.75;5030085;28;20049;-49
2023/01/31 01:36:42;;;;;;;;;;;2.70;99.90;;;5.71;54.28;98441.59;5030029;28;20056;-51
2023/01/31 01:39:12;;;;;;;7.50;4.10;;;2.60;99.90;;;5.88;53.61;98439.53;5031027;28;19928;-47
2023/01/31 01:41:41;;;;;;;9.97;4.80;;;2.60;99.90;;;5.85;54.05;98435.28;5029661;28;20068;-46
2023/01/31 01:44:54;;;;;;;11.97;4.57;;;2.60;99.90;;;5.75;54.42;98441.38;5029475;28;20041;-46
2023/01/31 01:47:49;;;;;;;9.77;4.37;;;2.60;99.90;;;5.68;54.82;98438.31;5025200;28;20046;-48
2023/01/31 01:50:52;;;;;;;11.00;4.32;;;2.60;99.90;;;5.62;55.13;98446.69;5023616;28;20057;-48
2023/01/31 01:53:23;;;;;;;8.27;4.47;;;2.50;99.90;;;5.67;54.69;98441.94;5023567;28;20060;-48
2023/01/31 01:55:56;;;;;;;8.50;5.20;;;2.50;99.90;;;5.77;55.07;98447.38;5012636;28;20058;-46
2023/01/31 01:58:52;;;;;;;10.52;4.78;;;2.60;99.90;;;5.71;54.58;98457.44;5029649;28;20042;-45
2023/01/31 02:01:23;;;;;;;10.77;5.17;;;2.60;99.90;;;5.45;55.86;98459.31;5024566;28;20049;-50
2023/01/31 02:03:51;;;;;;;11.63;5.17;;;2.50;99.90;;;5.53;55.74;98464.88;5029178;28;20409;-46
2023/01/31 02:06:20;;;;;;;7.67;4.77;;;2.40;99.90;;;5.38;55.78;98458.06;5029793;28;20381;-46
2023/01/31 02:08:48;;;;;;;11.80;4.50;;;2.40;99.90;;;5.47;55.61;98464.50;5029249;28;20049;-46
2023/01/31 02:11:26;;;;;;;10.80;5.13;;;2.30;99.90;;;5.39;56.17;98478.25;5029126;28;20072;-49
2023/01/31 02:14:09;;;;;;;13.57;5.00;;;2.30;99.90;;;5.44;55.74;98465.53;5029117;28;20060;-46
2023/01/31 02:16:37;;;;;;;14.83;5.43;;;2.30;99.90;;;5.49;55.64;98466.06;5029328;28;20052;-47
2023/01/31 02:20:00;;;;;;;9.50;4.83;;;2.30;99.90;;;5.32;55.58;98455.84;5013645;28;20056;-47
2023/01/31 02:22:33;;;;;;;7.87;4.70;;;2.20;99.90;;;5.32;55.90;98477.81;5024985;28;20045;-50
2023/01/31 02:25:12;;;;;;;12.63;6.03;;;2.20;99.90;;;5.29;56.18;98480.69;5022563;28;20037;-47
2023/01/31 02:28:04;;;;;;;11.47;5.20;;;2.20;99.90;;;5.25;56.25;98478.34;5029570;28;20045;-49
2023/01/31 02:31:24;;;;;;;12.37;6.10;;;2.20;99.90;;;5.02;57.56;98490.50;5028930;28;20064;-46
2023/01/31 02:34:15;;;;;;;13.20;5.30;;;2.20;99.90;;;5.19;56.29;98482.25;5015348;28;20048;-49
2023/01/31 02:37:04;;;;;;;8.63;4.80;;;2.20;99.90;;;5.37;56.39;98492.50;5028981;28;20048;-48
2023/01/31 02:39:50;;;;;;;9.60;5.07;;;2.20;99.90;;;5.36;56.53;98504.03;5029506;28;20455;-47
2023/01/31 02:43:05;;;;;;;9.63;4.97;;;2.30;99.90;;;5.33;56.89;98494.50;5023057;28;20410;-48
2023/01/31 02:45:54;;;;;;;12.15;5.53;;;2.20;99.90;;;5.25;56.57;98500.34;5025909;28;20428;-49
2023/01/31 02:49:01;;;;;;;16.20;6.03;;;2.30;99.90;;;5.50;56.54;98506.53;5024579;28;20041;-47
2023/01/31 02:51:41;;;;;;;14.13;5.90;;;2.40;99.90;;;5.67;56.29;98507.97;5038678;28;20061;-46
2023/01/31 02:54:17;;;;;;;16.50;7.90;;;2.50;99.90;;;5.57;55.91;98513.06;5014188;28;20050;-48
2023/01/31 02:56:47;;;;;;;15.33;6.00;;;2.50;99.90;;;5.71;55.94;98512.91;5028949;28;20041;-49
2023/01/31 02:59:26;;;;;;;12.77;5.17;;;2.50;99.90;;;5.78;55.89;98512.47;5028596;28;20042;-47
2023/01/31 03:02:02;;;;;;;10.80;5.47;;;2.60;99.90;;;5.88;56.42;98508.25;5013200;28;20053;-48
2023/01/31 03:04:32;;;;;;;16.50;6.27;;;2.60;99.90;;;5.72;56.45;98508.50;5024815;28;20045;-47
2023/01/31 03:07:15;;;;;;;13.57;5.37;;;2.60;99.90;;;5.63;56.17;98517.06;5032554;28;20049;-47
2023/01/31 03:10:02;;;;;;;10.50;5.33;;;2.50;99.90;;;5.55;56.47;98514.97;5032534;28;20048;-46
2023/01/31 03:13:01;;;;;;;11.80;5.60;;;2.50;99.90;;;5.70;56.56;98518.34;5032077;28;20124;-48
2023/01/31 03:19:12;;;;;;;13.33;5.40;;;2.50;99.90;;;5.91;56.00;98503.59;5029309;28;20049;-49
2023/01/31 03:21:52;;;;;;;11.32;5.18;;;2.60;99.90;;;6.03;55.32;98503.66;5016000;28;20049;-48
2023/01/31 03:24:25;;;;;;;11.70;6.57;;;2.70;99.90;;;6.07;55.48;98498.06;5032725;28;20066;-50
2023/01/31 03:26:56;;;;;;;13.57;6.22;;;2.70;99.90;;;6.03;55.49;98503.66;5032115;28;20086;-50
2023/01/31 03:29:27;;;;;;;12.23;5.73;;;2.70;99.90;;;6.04;55.17;98508.84;5016156;28;20500;-46
2023/01/31 03:32:26;;;;;;;9.00;5.40;;;2.60;99.90;;;6.04;55.45;98506.19;5031765;28;20053;-45
2023/01/31 03:34:54;;;;;;;13.10;6.70;;;2.60;99.90;;;5.98;54.65;98498.72;5033213;28;20041;-49
2023/01/31 03:37:54;;;;;;;11.17;5.10;;;2.60;99.90;;;5.93;54.89;98498.16;5016201;28;20501;-52
2023/01/31 03:40:40;;;;;;;11.57;5.97;;;2.60;99.90;;;5.92;55.13;98512.34;5011297;28;20068;-52
2023/01/31 03:43:24;;;;;;;13.20;5.07;;;2.60;99.90;;;5.95;55.16;98517.44;5024993;28;20045;-49
2023/01/31 03:46:15;;;;;;;16.83;7.10;;;2.60;99.90;;;5.98;55.47;98532.25;5032365;28;20054;-48
2023/01/31 03:48:48;;;;;;;10.67;5.03;;;2.60;99.90;;;5.97;55.45;98512.03;5031650;28;20544;-48
2023/01/31 03:51:27;;;;;;;13.65;5.88;;;2.60;99.90;;;5.87;55.50;98517.13;5032065;28;20056;-48
2023/01/31 03:54:04;;;;;;;11.63;6.00;;;2.50;99.90;;;5.88;54.75;98516.16;5030776;28;20045;-51
2023/01/31 03:56:43;;;;;;;10.83;5.77;;;2.50;99.90;;;5.81;55.22;98510.47;5015926;28;20045;-48
2023/01/31 03:59:21;;;;;;;12.80;6.10;;;2.40;99.90;;;5.49;55.90;98516.25;5024760;28;20421;-49
2023/01/31 04:01:54;;;;;;;11.60;5.33;;;2.30;99.90;;;5.55;55.41;98522.06;5015245;28;20045;-47
2023/01/31 04:04:49;;;;;;;12.77;6.27;;;2.30;99.90;;;5.56;55.92;98529.84;5032638;28;20045;-51
2023/01/31 04:07:17;;;;;;;10.50;5.83;;;2.30;99.90;;;5.52;55.43;98528.38;5017807;28;20045;-49
2023/01/31 04:09:46;;;;;;;16.10;6.77;;;2.20;99.90;;;5.53;55.42;98530.09;5014679;28;20512;-48
2023/01/31 04:12:14;;;;;;;9.33;5.63;;;2.20;99.90;;;5.50;55.25;98535.56;5032385;28;20490;-47
2023/01/31 04:14:42;;;;;;;11.60;7.23;;;2.20;99.90;;;5.52;55.03;98531.03;5031895;28;20444;-50
2023/01/31 04:17:10;;;;;;;11.40;7.07;;;2.20;99.90;;;5.48;55.39;98534.84;5031445;28;20037;-53
2023/01/31 04:19:37;;;;;;;14.67;7.57;;;2.10;99.90;;;5.51;54.90;98534.63;5032593;28;20056;-51
2023/01/31 04:22:05;;;;;;;9.83;5.40;;;2.20;99.90;;;5.49;56.26;98544.47;5032140;28;20053;-46
2023/01/31 04:24:33;;;;;;;13.07;6.30;;;2.20;99.90;;;5.50;55.88;98536.41;5030817;28;20068;-50
2023/01/31 04:27:01;;;;;;;17.40;6.77;;;2.20;99.90;;;5.49;55.49;98537.38;5032338;28;20433;-49
2023/01/31 04:29:28;;;;;;;12.80;5.73;;;2.20;99.90;;;5.50;55.43;98539.06;5032285;28;20045;-46
2023/01/31 04:31:56;;;;;;;12.50;7.00;;;2.20;99.90;;;5.55;55.67;98538.75;5032411;28;20401;-49
2023/01/31 04:34:23;;;;;;;10.53;5.83;;;2.30;99.90;;;5.65;55.65;98539.78;5031747;28;20050;-48
2023/01/31 04:36:51;;;;;;;13.43;7.43;;;2.30;99.90;;;5.50;55.79;98530.28;5032090;28;20049;-46
2023/01/31 04:39:18;;;;;;;15.20;6.47;;;2.30;99.90;;;5.66;56.50;98537.97;5032289;28;20401;-51
2023/01/31 04:41:47;;;;;;;15.70;5.97;;;2.40;99.90;;;5.72;56.02;98538.41;5031793;28;20045;-46
2023/01/31 04:44:15;;;;;;;12.70;6.57;;;2.40;99.90;;;5.75;56.27;98553.19;5032034;28;20064;-46
2023/01/31 04:46:45;;;;;;;11.97;6.33;;;2.40;99.90;;;5.68;56.27;98541.34;5031798;28;20037;-45
2023/01/31 04:49:14;;;;;;;12.90;5.93;;;2.40;99.90;;;5.76;56.15;98548.75;5030307;28;20046;-47
2023/01/31 04:51:41;;;;;;;18.43;7.90;;;2.40;99.90;;;5.85;55.57;98543.63;5030425;28;20144;-46
2023/01/31 04:54:09;;;;;;;13.43;6.53;;;2.50;99.90;;;5.72;55.77;98529.66;5022426;28;20045;-49
2023/01/31 04:56:36;;;;;;;15.63;7.03;;;2.40;99.90;;;5.78;55.59;98533.63;5030754;28;20524;-49
2023/01/31 04:59:04;;;;;;;13.37;6.43;;;2.40;99.90;;;5.56;56.77;98531.66;5030660;28;20049;-48
2023/01/31 05:01:31;;;;;;;13.80;6.50;;;2.30;99.90;;;5.51;55.79;98535.47;5031500;28;20049;-45
2023/01/31 05:03:59;;;;;;;13.37;5.67;;;2.30;99.90;;;5.55;55.75;98535.28;5031502;28;20085;-46
2023/01/31 05:06:26;;;;;;;11.50;6.83;;;2.20;99.90;;;5.52;56.54;98545.09;5031416;28;20053;-47
2023/01/31 05:08:54;;;;;;;11.80;6.30;;;2.20;99.90;;;5.52;56.13;98537.19;5031396;28;20050;-46
2023/01/31 05:11:21;;;;;;;11.40;6.83;;;2.20;99.90;;;5.49;56.05;98524.19;5031249;28;20485;-46
2023/01/31 05:13:49;;;;;;;14.37;6.73;;;2.20;99.90;;;5.48;56.00;98527.75;5031128;28;20041;-47
2023/01/31 05:16:16;;;;;;;15.03;6.83;;;2.20;99.90;;;5.49;56.03;98526.81;5031527;28;20037;-49
2023/01/31 05:18:44;;;;;;;11.57;6.40;;;2.10;99.90;;;5.52;55.92;98526.63;5031374;28;20040;-48
2023/01/31 05:21:12;;;;;;;11.87;6.10;;;2.10;99.90;;;5.45;55.95;98535.91;5031086;28;20041;-48
2023/01/31 05:23:39;;;;;;;11.63;6.63;;;2.10;99.90;;;5.43;56.11;98532.53;5030823;28;20049;-47
2023/01/31 05:26:07;;;;;;;16.67;7.03;;;2.10;99.90;;;5.44;55.86;98521.00;5031274;28;20041;-46
2023/01/31 05:28:35;;;;;;;17.77;6.20;;;2.10;99.90;;;5.46;56.15;98526.19;5031308;28;20037;-46
2023/01/31 05:31:06;;;;;;;16.37;8.27;;;2.10;99.90;;;5.35;55.69;98534.88;5030810;28;20045;-47
2023/01/31 05:33:35;;;;;;;13.33;6.70;;;2.00;99.90;;;5.42;55.18;98530.00;5031188;28;20468;-50
2023/01/31 05:36:02;;;;;;;15.13;7.47;;;2.00;99.90;;;5.44;55.69;98531.56;5030798;28;20045;-46
2023/01/31 05:38:30;;;;;;;13.80;6.47;;;2.00;99.90;;;5.40;55.50;98535.38;5031312;28;20040;-47
2023/01/31 05:40:58;;;;;;;10.73;5.83;;;2.00;99.90;;;5.38;55.56;98532.00;5030853;28;20533;-48
2023/01/31 05:43:25;;;;;;;16.10;6.53;;;2.00;99.90;;;5.39;55.72;98528.41;5031061;28;20041;-46
2023/01/31 05:45:53;;;;;;;16.00;5.77;;;2.00;99.90;;;5.36;55.86;98533.91;5031084;28;20525;-46
2023/01/31 05:48:21;;;;;;;14.60;6.63;;;2.00;99.90;;;5.38;55.66;98534.63;5030852;28;20038;-46
2023/01/31 05:50:49;;;;;;;12.73;5.37;;;2.00;99.90;;;5.35;55.38;98540.16;5031090;28;20064;-49
2023/01/31 05:53:17;;;;;;;11.73;5.90;;;2.00;99.90;;;5.37;55.99;98526.81;5030738;28;20037;-49
2023/01/31 05:55:47;;;;;;;9.97;6.03;;;2.00;99.90;;;5.36;55.39;98531.25;5030129;28;20052;-46
2023/01/31 05:58:15;;;;;;;13.93;5.87;;;2.00;99.90;;;5.33;55.23;98528.81;5023484;28;20040;-47
2023/01/31 06:00:42;;;;;;;10.50;5.13;;;2.00;99.90;;;5.32;55.53;98527.16;5030478;28;20038;-46
2023/01/31 06:03:10;;;;;;;7.63;4.77;;;2.00;99.90;;;5.36;55.66;98528.63;5030669;28;20033;-46
2023/01/31 06:05:39;;;;;;;13.00;4.57;;;2.00;99.90;;;5.31;55.55;98526.31;5030800;28;20045;-47
2023/01/31 06:08:06;;;;;;;13.90;5.47;;;2.00;99.90;;;5.31;55.20;98528.09;5012694;28;20060;-48
2023/01/31 06:10:34;;;;;;;12.17;5.40;;;1.90;99.90;;;5.31;55.52;98536.00;5030111;28;20516;-46
2023/01/31 06:13:01;;;;;;;10.17;5.23;;;1.90;99.90;;;5.28;54.92;98534.44;5030556;28;20064;-45
2023/01/31 06:15:29;;;;;;;12.57;4.97;;;1.90;99.90;;;5.28;54.93;98538.88;5030750;28;20088;-45
2023/01/31 06:17:57;;;;;;;8.50;4.87;;;1.90;99.90;;;5.31;54.73;98547.44;5030720;28;20413;-45
2023/01/31 06:20:25;;;;;;;8.23;5.07;;;1.90;99.90;;;5.28;55.30;98537.06;5030351;28;20045;-45
2023/01/31 06:22:53;;;;;;;8.77;4.70;;;1.90;99.90;;;5.27;54.48;98545.97;5030642;28;20052;-47
2023/01/31 06:25:20;;;;;;;10.40;4.40;;;1.90;99.90;;;5.24;54.98;98540.03;5030676;28;20053;-45
2023/01/31 06:27:48;;;;;;;14.47;4.87;;;1.90;99.90;;;5.24;55.16;98543.53;5029129;28;20065;-47
2023/01/31 06:30:16;;;;;;;9.40;4.60;;;1.90;99.90;;;5.25;54.36;98539.06;5030856;28;20064;-45
2023/01/31 06:32:43;;;;;;;9.70;4.20;;;1.90;99.90;;;5.27;54.64;98547.72;5029992;28;20045;-47
2023/01/31 06:35:11;;;;;;;6.67;3.80;;;1.90;99.90;;;5.25;54.78;98539.94;5029953;28;20045;-45
2023/01/31 06:37:38;;;;;;;9.63;4.40;;;1.90;99.90;;;5.27;54.11;98548.59;5032486;28;20037;-47
2023/01/31 06:40:06;;;;;;;7.03;3.83;;;1.80;99.90;;;5.26;54.18;98548.69;5033770;28;20057;-47
2023/01/31 06:42:34;;;;;;;7.43;3.80;;;1.90;99.90;;;5.23;54.16;98548.91;5033769;28;20040;-45
2023/01/31 06:45:02;;;;;;;8.43;4.23;;;1.90;99.90;;;5.23;53.96;98556.81;5034255;28;20064;-47
2023/01/31 06:47:29;;;;;;;9.47;4.27;;;1.80;99.90;;;5.22;53.92;98561.25;5034369;28;20386;-47
2023/01/31 06:49:57;;;;;;;8.50;3.50;;;1.80;99.90;;;5.20;54.44;98552.59;5034218;28;20053;-46
2023/01/31 06:52:24;;;;;;;9.30;5.13;;;1.80;99.90;;;5.18;53.63;98553.66;5033643;28;20369;-47
2023/01/31 06:54:52;;;;;;;8.53;3.97;;;1.80;99.90;;;5.17;54.47;98551.97;5033340;28;20419;-48
2023/01/31 06:57:20;;;;;;;9.50;4.03;;;1.80;99.90;;;5.14;54.81;98547.75;5032963;28;20056;-47
2023/01/31 06:59:48;;;;;;;7.03;4.23;;;1.80;99.90;;;5.12;54.19;98554.94;5033736;28;20049;-45
2023/01/31 07:02:15;;;;;;;10.43;4.17;;;1.80;99.90;;;5.10;54.60;98554.19;5025782;28;20496;-50
2023/01/31 07:04:43;;;;;;;8.30;5.20;;;1.70;99.90;;;5.09;54.22;98549.84;5034155;28;20053;-45
2023/01/31 07:07:10;;;;;;;14.17;6.37;;;1.70;99.90;;;5.07;54.24;98546.47;5033843;28;20476;-47
2023/01/31 07:09:38;;;;;;;9.83;5.47;;;1.70;99.90;;;5.08;53.97;98551.66;5033996;28;20045;-44
2023/01/31 07:12:06;;;;;;;15.27;5.50;;;1.70;99.90;;;5.08;53.88;98556.09;5016077;28;20061;-49
2023/01/31 07:14:33;;;;;;;7.70;5.03;;;1.70;99.90;;;5.09;54.09;98550.69;5034256;28;20037;-46
2023/01/31 07:17:01;;;;;;;7.57;3.93;;;1.70;99.90;;;5.08;54.20;98556.94;5033133;28;20045;-48
2023/01/31 07:19:28;;;;;;;8.70;3.73;;;1.70;99.90;;;5.04;54.27;98549.31;5034106;28;20493;-48
2023/01/31 07:21:56;;;;;;;8.90;5.10;;;1.70;99.90;;;5.06;54.31;98550.03;5033790;28;20041;-47
2023/01/31 07:24:24;;;;;;;9.87;3.87;;;1.70;99.90;;;5.09;54.06;98550.69;5034155;28;20068;-45
2023/01/31 07:26:52;;;;;;;9.70;4.47;;;1.70;99.90;;;5.07;54.49;98564.94;5033351;28;20053;-44
2023/01/31 07:29:20;;;;;;;13.27;4.30;;;1.80;99.90;;;5.04;53.84;98566.00;5033110;28;20501;-44
2023/01/31 07:31:48;;;;;;;9.43;5.37;;;1.70;99.90;;;5.09;54.37;98568.31;5032972;28;20408;-46
2023/01/31 07:34:17;;;;;;;10.47;4.13;;;1.70;99.90;;;5.08;54.09;98561.38;5033504;28;20045;-45
2023/01/31 07:36:45;;;;;;;6.43;3.50;;;1.70;99.90;;;5.10;53.81;98568.22;5032450;28;20042;-45
2023/01/31 07:39:13;;;;;;;7.03;3.87;;;1.70;99.90;;;5.11;54.11;98575.19;5033163;28;20068;-46
2023/01/31 07:41:40;;;;;;;14.03;5.07;;;1.70;99.90;;;5.13;53.84;98575.91;5032966;28;20489;-44
2023/01/31 07:44:11;;;;;;;7.77;4.00;;;1.80;99.90;;;5.15;53.39;98570.53;5033201;28;20037;-46
2023/01/31 07:46:40;;;;;;;9.07;4.17;;;1.80;99.90;;;5.16;53.93;98572.25;5033336;28;20049;-48
2023/01/31 07:49:11;;;;;;;7.03;3.50;;;1.70;99.90;;;5.10;54.02;98583.22;5030583;28;20050;-51
2023/01/31 07:51:39;;;;;;;9.60;4.30;;;1.80;99.90;;;5.16;53.94;98581.94;5032740;28;20053;-46
2023/01/31 07:54:10;;;;;;;10.40;3.83;;;1.70;99.90;;;5.21;54.31;98582.47;5028773;28;20053;-45
2023/01/31 07:56:38;;;;;;;11.03;3.60;;;1.80;99.90;;;5.14;54.07;98587.34;5030832;28;20033;-46
2023/01/31 07:59:05;;;;;;;6.93;3.73;;;1.80;99.90;;;5.20;54.23;98591.38;5032701;28;20045;-47
2023/01/31 08:04:38;;;;;;;8.30;3.80;;;1.90;99.90;;;5.33;53.79;98602.75;5070348;28;20400;-50
2023/01/31 08:07:06;;;;;;;10.23;4.30;;;1.90;99.90;;;5.38;53.77;98611.22;5069832;28;20095;-48
2023/01/31 08:09:33;;;;;;;8.50;3.70;;;2.00;99.90;;;5.46;53.22;98608.06;5045134;28;20116;-45
2023/01/31 08:12:01;;;;;;;9.03;4.20;;;2.10;99.90;;;5.50;53.54;98604.25;5032183;28;20548;-47
2023/01/31 08:14:28;;;;;;;9.30;3.87;;;2.10;99.90;;;5.55;54.00;98606.59;5032404;28;20049;-45
2023/01/31 08:16:57;;;;;;;9.80;4.57;;;2.20;99.90;;;5.59;53.26;98611.53;5032833;28;20456;-48
2023/01/31 08:19:25;;;;;;;5.20;2.93;;;2.30;99.90;;;5.68;53.02;98607.41;5032656;28;20029;-47
2023/01/31 08:21:53;;;;;;;11.17;3.57;;;2.30;99.90;;;5.76;52.93;98610.38;5032139;28;20041;-48
2023/01/31 08:24:20;;;;;;;7.50;3.70;;;2.40;99.90;;;5.82;52.86;98595.91;5024141;28;20038;-45
2023/01/31 08:26:48;;;;;;;7.13;3.10;;;2.40;99.90;;;5.87;52.97;98593.75;5032745;28;20049;-45
2023/01/31 08:29:16;;;;;;;6.23;3.27;;;2.50;99.90;;;5.87;52.94;98599.03;5032245;28;20412;-51
2023/01/31 08:31:44;;;;;;;7.77;3.77;;;2.50;99.90;;;5.97;53.24;98591.34;5032002;28;20049;-49
2023/01/31 08:34:11;;;;;;;8.80;3.70;;;2.60;99.90;;;6.03;53.01;98585.59;5032107;28;20049;-48
2023/01/31 08:36:39;;;;;;;9.27;3.27;;;2.70;99.90;;;6.04;53.33;98585.50;5031091;28;20044;-46
2023/01/31 08:39:07;;;;;;;8.43;3.00;;;2.70;99.90;;;6.09;52.81;98579.91;5030861;28;20042;-50
2023/01/31 08:41:36;;;;;;;11.00;4.37;;;2.70;99.90;;;6.14;52.91;98585.69;5030178;28;20045;-49
2023/01/31 08:44:06;;;;;;;6.53;3.10;;;2.80;99.90;;;6.23;52.58;98574.44;5031891;28;20280;-46
2023/01/31 08:46:36;;;;;;;10.50;4.00;;;2.90;99.90;;;6.32;52.29;98578.25;5030932;28;20041;-46
2023/01/31 08:49:05;;;;;;;9.13;3.30;;;2.90;99.90;;;6.39;52.82;98573.34;5032609;28;20060;-46
2023/01/31 08:51:33;;;;;;;6.20;2.73;;;3.00;99.70;;;6.39;52.13;98576.00;5031827;28;20493;-46
2023/01/31 08:54:01;;;;;;;7.40;3.43;;;3.00;99.90;;;6.47;52.78;98577.09;5030704;28;20037;-45
2023/01/31 08:56:28;;;;;;;13.93;4.83;;;3.10;99.90;;;6.56;52.44;98572.94;5031453;28;20485;-47
2023/01/31 08:58:56;;;;;;;9.47;3.87;;;3.20;99.90;;;6.67;52.59;98577.47;5030957;28;20045;-45
2023/01/31 09:01:24;;;;;;;9.90;3.70;;;3.30;99.70;;;6.76;52.09;98582.03;5031324;28;20049;-45
2023/01/31 09:03:56;;;;;;;7.23;3.20;;;3.40;99.80;;;6.76;52.34;98579.41;5031663;28;20523;-47
2023/01/31 09:06:26;;;;;;;8.70;3.40;;;3.40;97.60;;;6.83;52.25;98575.34;5031883;28;20412;-50
2023/01/31 09:08:57;;;;;;;7.80;3.23;;;3.50;99.40;;;6.71;51.75;98581.56;5031700;28;20045;-45
2023/01/31 09:11:28;;;;;;;7.57;3.47;;;3.40;97.80;;;6.68;51.63;98573.84;5023758;28;20045;-46
2023/01/31 09:13:57;;;;;;;7.30;3.47;;;3.40;96.20;;;6.73;51.32;98582.28;5031419;28;20060;-50
2023/01/31 09:16:24;;;;;;;5.80;2.90;;;3.40;95.50;;;6.74;51.84;98573.38;5023770;28;20037;-46
2023/01/31 09:18:53;;;;;;;9.07;3.00;;;3.40;97.20;;;6.79;51.58;98573.06;5031521;28;20049;-46
2023/01/31 09:21:23;;;;;;;8.40;3.60;;;3.50;95.60;;;6.84;51.32;98573.53;5031239;28;20037;-46
2023/01/31 09:23:58;;;;;;;5.20;2.83;;;3.50;97.40;;;6.93;51.57;98569.38;5031466;28;20052;-47
2023/01/31 09:26:26;;;;;;;14.67;3.27;;;3.60;96.10;;;6.97;51.43;98561.06;5023837;28;20052;-48
2023/01/31 09:28:56;;;;;;;9.33;4.20;;;3.70;96.40;;;7.09;51.13;98564.59;5029938;28;20064;-47
2023/01/31 09:31:24;;;;;;;5.87;3.17;;;3.80;96.30;;;7.13;51.17;98570.50;5029988;28;20041;-47
2023/01/31 09:33:53;;;;;;;7.80;3.20;;;3.80;94.00;;;7.17;50.91;98570.13;5031216;28;20056;-46
2023/01/31 09:36:23;;;;;;;9.07;3.30;;;3.80;95.30;;;7.22;50.58;98567.16;5030875;28;20034;-46
2023/01/31 09:38:55;;;;;;;6.60;3.33;;;3.80;94.60;;;7.22;50.50;98572.44;5029635;28;20049;-47
2023/01/31 09:41:54;;;;;;;8.03;3.23;;;3.80;92.40;;;7.14;50.80;98558.97;5030834;28;20116;-45
2023/01/31 09:44:26;;;;;;;10.67;3.23;;;3.80;91.50;;;7.22;50.29;98560.03;5029913;28;20052;-49
2023/01/31 09:47:27;;;;;;;11.83;5.00;;;3.70;93.70;;;7.28;51.00;98561.38;5031141;28;20045;-48
2023/01/31 09:50:01;;;;;;;14.60;6.77;;;3.80;93.80;;;7.35;50.17;98553.78;5027347;28;20053;-50
2023/01/31 09:52:31;;;;;;;14.00;4.33;;;3.90;92.90;;;7.38;50.62;98564.16;5023363;28;20037;-48
2023/01/31 09:54:59;;;;;;;6.07;3.20;;;3.90;92.30;;;7.44;50.48;98571.63;5030819;28;20420;-49
2023/01/31 09:58:03;;;;;;;9.33;4.07;;;4.00;91.20;;;7.46;50.30;98578.53;5030921;28;20037;-48
2023/01/31 10:00:49;;;;;;;11.32;3.70;;;4.00;90.90;;;7.51;50.73;98577.31;5021742;28;20112;-48
2023/01/31 10:03:40;;;;;;;7.90;2.97;;;4.10;91.10;;;7.54;50.25;98577.06;5029505;28;20046;-46
2023/01/31 10:06:23;;;;;;;8.93;3.20;;;4.10;90.70;;;7.62;50.59;98578.16;5030848;28;20151;-47
2023/01/31 10:09:43;;;;;;;10.33;3.47;;;4.20;91.40;;;7.63;50.52;98577.19;5030725;28;20068;-46
2023/01/31 10:12:23;;;;;;;8.57;3.03;;;4.20;88.70;;;7.22;50.13;98583.03;5041139;28;20041;-45
2023/01/31 10:15:23;;;;;;;8.67;3.30;;;4.00;86.70;;;7.37;50.33;98586.34;5029761;28;20037;-47
2023/01/31 10:18:01;;;;;;;6.47;3.50;;;3.90;88.50;;;7.38;50.35;98577.41;5038467;28;20053;-45
2023/01/31 10:20:38;;;;;;;6.47;3.10;;;3.90;88.20;;;7.37;49.65;98576.56;5029341;28;20052;-49
2023/01/31 10:23:40;;;;;;;10.23;3.40;;;3.90;88.90;;;7.28;49.88;98572.81;5029559;28;20037;-45
2023/01/31 10:26:38;;;;;;;7.77;3.40;;;3.90;88.40;;;7.39;49.89;98582.59;5030665;28;20046;-47
2023/01/31 10:29:33;;;;;;;11.13;4.67;;;4.00;89.30;;;7.45;49.99;98575.97;5044717;28;20057;-46
2023/01/31 10:32:22;;;;;;;8.60;3.83;;;4.10;88.60;;;7.49;49.91;98569.47;5030378;28;20417;-48
2023/01/31 10:35:01;;;;;;;5.83;3.27;;;4.20;87.80;;;7.49;50.28;98578.25;5024814;28;20042;-47
2023/01/31 10:37:40;;;;;;;7.87;3.50;;;4.10;88.80;;;7.56;50.36;98575.13;5021725;28;20046;-47
2023/01/31 10:40:21;;;;;;;6.40;3.00;;;4.20;88.40;;;7.48;50.09;98568.63;5029729;28;20041;-51
2023/01/31 10:43:01;;;;;;;9.27;3.90;;;4.10;87.10;;;7.42;50.06;98569.09;5029925;28;20107;-47
2023/01/31 10:45:32;;;;;;;12.63;4.73;;;4.10;88.10;;;7.10;50.21;98571.56;5031485;28;20046;-46
2023/01/31 10:48:26;;;;;;;9.77;3.60;;;3.90;87.50;;;7.12;50.34;98567.00;5030038;28;20052;-47
2023/01/31 10:51:35;;;;;;;11.13;4.72;;;3.90;88.20;;;7.21;50.61;98570.75;5025397;28;20065;-49
2023/01/31 10:54:33;;;;;;;8.87;3.60;;;4.00;88.60;;;7.16;50.91;98564.97;5023969;28;20053;-46
2023/01/31 10:57:00;;;;;;;16.50;3.90;;;3.90;89.00;;;7.09;51.22;98567.22;5025579;28;20486;-49
2023/01/31 10:59:42;;;;;;;7.57;3.60;;;3.90;89.80;;;6.87;51.79;98568.03;5031252;28;20040;-47
2023/01/31 11:02:24;;;;;;;9.63;3.70;;;3.90;89.00;;;6.99;51.35;98572.38;5029520;28;20048;-50
2023/01/31 11:04:56;;;;;;;6.27;3.80;;;3.90;89.00;;;6.93;51.64;98570.19;5030423;28;20045;-48